^^
Station Historical Data
Daily Summary for June 19, 2017 Units:  Both    English   Metric
« Previous Day
Next Day »
Daily Weekly Monthly Yearly Custom
  High: Low: Average:
Temperature: 69.1 °F /  20.6 °C 50.7 °F /  10.4 °C 59.7 °F /  15.4 °C
Dew Point: 61.9 °F /  16.6 °C 50.2 °F /  10.1 °C 57.1 °F /  13.9 °C
Humidity: 98% 65% 92%
Wind Speed: 8.1mph /  13km/h - 2.7mph /  4.3km/h
Wind Gust: 8.1mph /  13km/h - -
Wind- - WSW
Pressure: 29.81 in /  1009.4 hPa 29.62 in /  1002.9 hPa -
Precipitation: 0.38 in /  9.65 mm    
Historical Graphs
 
 
Tabular Data for June 19, 2017
Time Temperature Dew Point Pressure Wind Wind Speed Wind Gust Humidity Rainfall Rate (Hourly) solar Conditions
00:02 56.5 °F /  13.6 °C 55.9 °F /  13.3 °C 29.64in /  1003.6hPa West 3.5mph /  5.6km/h 3.5mph /  5.6km/h 98% 0.00in /  0mm 0.0 W/m2 RA
00:07 56.7 °F /  13.7 °C 56.1 °F /  13.4 °C 29.62in /  1002.9hPa WSW 2.3mph /  3.7km/h 2.3mph /  3.7km/h 98% 0.00in /  0mm 0.0 W/m2 RA
00:12 56.5 °F /  13.6 °C 55.9 °F /  13.3 °C 29.64in /  1003.6hPa SW 2.3mph /  3.7km/h 2.3mph /  3.7km/h 98% 0.00in /  0mm 0.0 W/m2 SCT
00:17 56.5 °F /  13.6 °C 55.9 °F /  13.3 °C 29.64in /  1003.6hPa SW 2.3mph /  3.7km/h   98% 0.00in /  0mm 0.0 W/m2 SCT
00:22 56.5 °F /  13.6 °C 55.9 °F /  13.3 °C 29.64in /  1003.6hPa SW 1.2mph /  1.9km/h   98% 0.00in /  0mm 0.0 W/m2 SCT
00:27 56.5 °F /  13.6 °C 55.9 °F /  13.3 °C 29.64in /  1003.6hPa SSW 1.2mph /  1.9km/h   98% 0.00in /  0mm 0.0 W/m2 SCT
00:32 56.3 °F /  13.5 °C 55.7 °F /  13.2 °C 29.64in /  1003.6hPa Calm     98% 0.00in /  0mm 0.0 W/m2 SCT
00:37 55.9 °F /  13.3 °C 55.4 °F /  13 °C 29.64in /  1003.6hPa Calm     98% 0.00in /  0mm 0.0 W/m2 SCT
00:42 55.9 °F /  13.3 °C 55.4 °F /  13 °C 29.64in /  1003.6hPa Calm     98% 0.00in /  0mm 0.0 W/m2 SCT
00:47 55.6 °F /  13.1 °C 55.0 °F /  12.8 °C 29.64in /  1003.6hPa Calm     98% 0.00in /  0mm 0.0 W/m2 SCT
00:52 55.0 °F /  12.8 °C 54.5 °F /  12.5 °C 29.64in /  1003.6hPa Calm     98% 0.00in /  0mm 0.0 W/m2 SCT
00:57 55.0 °F /  12.8 °C 54.5 °F /  12.5 °C 29.62in /  1002.9hPa Calm     98% 0.00in /  0mm 0.0 W/m2 SCT
01:02 54.9 °F /  12.7 °C 54.3 °F /  12.4 °C 29.64in /  1003.6hPa Calm     98% 0.00in /  0mm 0.0 W/m2 FEW
01:07 54.7 °F /  12.6 °C 54.1 °F /  12.3 °C 29.62in /  1002.9hPa Calm     98% 0.00in /  0mm 0.0 W/m2 FEW
01:12 54.7 °F /  12.6 °C 54.1 °F /  12.3 °C 29.64in /  1003.6hPa Calm     98% 0.00in /  0mm 0.0 W/m2 FEW
01:17 54.3 °F /  12.4 °C 53.8 °F /  12.1 °C 29.64in /  1003.6hPa SW 1.2mph /  1.9km/h 1.2mph /  1.9km/h 98% 0.00in /  0mm 0.0 W/m2 FEW
01:22 54.3 °F /  12.4 °C 53.8 °F /  12.1 °C 29.62in /  1002.9hPa SSW 1.2mph /  1.9km/h   98% 0.00in /  0mm 0.0 W/m2 FEW
01:27 54.1 °F /  12.3 °C 53.6 °F /  12 °C 29.64in /  1003.6hPa South 1.2mph /  1.9km/h   98% 0.00in /  0mm 0.0 W/m2 FEW
01:32 54.1 °F /  12.3 °C 53.6 °F /  12 °C 29.64in /  1003.6hPa SSW 2.3mph /  3.7km/h 2.3mph /  3.7km/h 98% 0.00in /  0mm 0.0 W/m2 FEW
01:37 54.1 °F /  12.3 °C 53.6 °F /  12 °C 29.62in /  1002.9hPa WSW 2.3mph /  3.7km/h 2.3mph /  3.7km/h 98% 0.00in /  0mm 0.0 W/m2 FEW
01:42 54.1 °F /  12.3 °C 53.6 °F /  12 °C 29.64in /  1003.6hPa WSW 2.3mph /  3.7km/h 2.3mph /  3.7km/h 98% 0.00in /  0mm 0.0 W/m2 FEW
01:47 54.1 °F /  12.3 °C 53.6 °F /  12 °C 29.63in /  1003.3hPa SW 2.3mph /  3.7km/h 2.3mph /  3.7km/h 98% 0.00in /  0mm 0.0 W/m2 FEW
01:52 54.1 °F /  12.3 °C 53.6 °F /  12 °C 29.64in /  1003.6hPa SW 2.3mph /  3.7km/h 2.3mph /  3.7km/h 98% 0.00in /  0mm 0.0 W/m2 FEW
01:57 54.0 °F /  12.2 °C 53.4 °F /  11.9 °C 29.64in /  1003.6hPa SW 2.3mph /  3.7km/h 2.3mph /  3.7km/h 98% 0.00in /  0mm 0.0 W/m2 FEW
02:02 54.0 °F /  12.2 °C 53.4 °F /  11.9 °C 29.64in /  1003.6hPa SW 2.3mph /  3.7km/h 2.3mph /  3.7km/h 98% 0.00in /  0mm 0.0 W/m2 OVC
02:07 54.0 °F /  12.2 °C 53.4 °F /  11.9 °C 29.64in /  1003.6hPa West 2.3mph /  3.7km/h   98% 0.00in /  0mm 0.0 W/m2 OVC
02:12 54.0 °F /  12.2 °C 53.4 °F /  11.9 °C 29.64in /  1003.6hPa West 2.3mph /  3.7km/h   98% 0.00in /  0mm 0.0 W/m2 OVC
02:17 53.8 °F /  12.1 °C 53.2 °F /  11.8 °C 29.64in /  1003.6hPa WSW 1.2mph /  1.9km/h 1.2mph /  1.9km/h 98% 0.00in /  0mm 0.0 W/m2 OVC
02:22 53.8 °F /  12.1 °C 53.2 °F /  11.8 °C 29.64in /  1003.6hPa WSW 1.2mph /  1.9km/h 1.2mph /  1.9km/h 98% 0.00in /  0mm 0.0 W/m2 OVC
02:27 53.4 °F /  11.9 °C 52.9 °F /  11.6 °C 29.64in /  1003.6hPa WSW 1.2mph /  1.9km/h 1.2mph /  1.9km/h 98% 0.00in /  0mm 0.0 W/m2 OVC
02:32 53.4 °F /  11.9 °C 52.9 °F /  11.6 °C 29.64in /  1003.6hPa SW 1.2mph /  1.9km/h   98% 0.00in /  0mm 0.0 W/m2 OVC
02:37 53.4 °F /  11.9 °C 52.9 °F /  11.6 °C 29.64in /  1003.6hPa SW 1.2mph /  1.9km/h   98% 0.00in /  0mm 0.0 W/m2 OVC
02:38 53.4 °F /  11.9 °C 52.9 °F /  11.6 °C 29.64in /  1003.6hPa SW 1.2mph /  1.9km/h   98% 0.00in /  0mm 0.0 W/m2 OVC
02:43 53.2 °F /  11.8 °C 52.7 °F /  11.5 °C 29.64in /  1003.6hPa Calm     98% 0.00in /  0mm 0.0 W/m2 OVC
02:48 53.2 °F /  11.8 °C 52.7 °F /  11.5 °C 29.64in /  1003.6hPa Calm     98% 0.00in /  0mm 0.0 W/m2 OVC
02:53 53.1 °F /  11.7 °C 52.5 °F /  11.4 °C 29.64in /  1003.6hPa Calm     98% 0.00in /  0mm 0.0 W/m2 OVC
02:58 52.9 °F /  11.6 °C 52.3 °F /  11.3 °C 29.64in /  1003.6hPa Calm     98% 0.00in /  0mm 0.0 W/m2 OVC
03:03 52.5 °F /  11.4 °C 52.0 °F /  11.1 °C 29.65in /  1003.9hPa Calm     98% 0.00in /  0mm 0.0 W/m2 CLR
03:08 52.3 °F /  11.3 °C 51.8 °F /  11 °C 29.64in /  1003.6hPa Calm     98% 0.00in /  0mm 0.0 W/m2 CLR
03:13 52.2 °F /  11.2 °C 51.6 °F /  10.9 °C 29.64in /  1003.6hPa Calm     98% 0.00in /  0mm 0.0 W/m2 CLR
03:18 52.2 °F /  11.2 °C 51.6 °F /  10.9 °C 29.64in /  1003.6hPa Calm     98% 0.00in /  0mm 0.0 W/m2 CLR
03:23 52.2 °F /  11.2 °C 51.6 °F /  10.9 °C 29.64in /  1003.6hPa Calm     98% 0.00in /  0mm 0.0 W/m2 CLR
03:28 51.8 °F /  11 °C 51.3 °F /  10.7 °C 29.65in /  1003.9hPa Calm     98% 0.00in /  0mm 0.0 W/m2 CLR
03:33 51.4 °F /  10.8 °C 50.9 °F /  10.5 °C 29.65in /  1003.9hPa Calm     98% 0.00in /  0mm 0.0 W/m2 CLR
03:38 51.4 °F /  10.8 °C 50.9 °F /  10.5 °C 29.65in /  1003.9hPa Calm     98% 0.00in /  0mm 0.0 W/m2 CLR
03:43 51.3 °F /  10.7 °C 50.7 °F /  10.4 °C 29.65in /  1003.9hPa Calm     98% 0.00in /  0mm 0.0 W/m2 CLR
03:48 51.3 °F /  10.7 °C 50.7 °F /  10.4 °C 29.65in /  1003.9hPa Calm     98% 0.00in /  0mm 0.0 W/m2 CLR
03:53 51.1 °F /  10.6 °C 50.5 °F /  10.3 °C 29.65in /  1003.9hPa Calm     98% 0.00in /  0mm 0.0 W/m2 CLR
03:58 51.1 °F /  10.6 °C 50.5 °F /  10.3 °C 29.66in /  1004.3hPa Calm     98% 0.00in /  0mm 0.0 W/m2 CLR
04:03 50.9 °F /  10.5 °C 50.4 °F /  10.2 °C 29.66in /  1004.3hPa Calm     98% 0.00in /  0mm 0.0 W/m2 CLR
04:08 51.1 °F /  10.6 °C 50.5 °F /  10.3 °C 29.66in /  1004.3hPa Calm     98% 0.00in /  0mm 0.0 W/m2 CLR
04:13 50.9 °F /  10.5 °C 50.4 °F /  10.2 °C 29.68in /  1005hPa Calm     98% 0.00in /  0mm 0.0 W/m2 CLR
04:18 50.9 °F /  10.5 °C 50.4 °F /  10.2 °C 29.68in /  1005hPa Calm     98% 0.00in /  0mm 0.0 W/m2 CLR
04:23 50.7 °F /  10.4 °C 50.2 °F /  10.1 °C 29.68in /  1005hPa Calm     98% 0.00in /  0mm 0.0 W/m2 CLR
04:28 50.7 °F /  10.4 °C 50.2 °F /  10.1 °C 29.68in /  1005hPa Calm     98% 0.00in /  0mm 0.0 W/m2 CLR
04:33 51.1 °F /  10.6 °C 50.5 °F /  10.3 °C 29.68in /  1005hPa Calm     98% 0.00in /  0mm 0.0 W/m2 CLR
04:38 51.1 °F /  10.6 °C 50.5 °F /  10.3 °C 29.68in /  1005hPa Calm     98% 0.00in /  0mm 0.0 W/m2 CLR
04:43 51.4 °F /  10.8 °C 50.9 °F /  10.5 °C 29.68in /  1005hPa SW 3.5mph /  5.6km/h 3.5mph /  5.6km/h 98% 0.00in /  0mm 0.0 W/m2 CLR
04:48 52.2 °F /  11.2 °C 51.6 °F /  10.9 °C 29.69in /  1005.3hPa WSW 3.5mph /  5.6km/h 3.5mph /  5.6km/h 98% 0.00in /  0mm 0.0 W/m2 CLR
04:53 52.3 °F /  11.3 °C 51.8 °F /  11 °C 29.69in /  1005.3hPa WSW 2.3mph /  3.7km/h 2.3mph /  3.7km/h 98% 0.00in /  0mm 0.0 W/m2 CLR
04:58 52.3 °F /  11.3 °C 51.8 °F /  11 °C 29.69in /  1005.3hPa WSW 3.5mph /  5.6km/h 3.5mph /  5.6km/h 98% 0.00in /  0mm 125.9 W/m2 CLR
05:03 52.5 °F /  11.4 °C 52.0 °F /  11.1 °C 29.69in /  1005.3hPa WSW 3.5mph /  5.6km/h 3.5mph /  5.6km/h 98% 0.00in /  0mm 144.1 W/m2 OVC
05:08 52.5 °F /  11.4 °C 52.0 °F /  11.1 °C 29.69in /  1005.3hPa WSW 2.3mph /  3.7km/h 2.3mph /  3.7km/h 98% 0.00in /  0mm 185.5 W/m2 OVC
05:13 52.9 °F /  11.6 °C 52.3 °F /  11.3 °C 29.68in /  1005hPa WSW 2.3mph /  3.7km/h 2.3mph /  3.7km/h 98% 0.00in /  0mm 190.6 W/m2 OVC
05:18 53.1 °F /  11.7 °C 52.5 °F /  11.4 °C 29.69in /  1005.3hPa West 2.3mph /  3.7km/h 2.3mph /  3.7km/h 98% 0.00in /  0mm 206.7 W/m2 OVC
05:23 53.2 °F /  11.8 °C 52.7 °F /  11.5 °C 29.69in /  1005.3hPa WSW 2.3mph /  3.7km/h 2.3mph /  3.7km/h 98% 0.00in /  0mm 226.9 W/m2 OVC
05:28 53.4 °F /  11.9 °C 52.9 °F /  11.6 °C 29.69in /  1005.3hPa WSW 3.5mph /  5.6km/h 3.5mph /  5.6km/h 98% 0.00in /  0mm 230.0 W/m2 OVC
05:33 53.8 °F /  12.1 °C 53.2 °F /  11.8 °C 29.69in /  1005.3hPa West 3.5mph /  5.6km/h 3.5mph /  5.6km/h 98% 0.00in /  0mm 242.1 W/m2 OVC
05:38 54.0 °F /  12.2 °C 53.4 °F /  11.9 °C 29.69in /  1005.3hPa West 3.5mph /  5.6km/h 3.5mph /  5.6km/h 98% 0.00in /  0mm 257.2 W/m2 OVC
05:43 54.0 °F /  12.2 °C 53.4 °F /  11.9 °C 29.69in /  1005.3hPa West 3.5mph /  5.6km/h 3.5mph /  5.6km/h 98% 0.00in /  0mm 259.3 W/m2 OVC
05:44 54.0 °F /  12.2 °C 53.4 °F /  11.9 °C 29.69in /  1005.3hPa WSW 3.5mph /  5.6km/h 3.5mph /  5.6km/h 98% 0.00in /  0mm 53.0 W/m2 OVC
05:49 54.1 °F /  12.3 °C 53.6 °F /  12 °C 29.69in /  1005.3hPa WSW 2.3mph /  3.7km/h 2.3mph /  3.7km/h 98% 0.00in /  0mm 64.0 W/m2 OVC
05:54 54.7 °F /  12.6 °C 54.1 °F /  12.3 °C 29.69in /  1005.3hPa WSW 3.5mph /  5.6km/h 3.5mph /  5.6km/h 98% 0.00in /  0mm 263.3 W/m2 OVC
05:59 54.7 °F /  12.6 °C 54.1 °F /  12.3 °C 29.69in /  1005.3hPa SW 3.5mph /  5.6km/h 3.5mph /  5.6km/h 98% 0.00in /  0mm 270.4 W/m2 OVC
06:04 54.9 °F /  12.7 °C 54.3 °F /  12.4 °C 29.69in /  1005.3hPa SW 1.2mph /  1.9km/h 1.2mph /  1.9km/h 98% 0.00in /  0mm 280.5 W/m2 OVC
06:09 55.0 °F /  12.8 °C 54.5 °F /  12.5 °C 29.70in /  1005.6hPa WSW 2.3mph /  3.7km/h 2.3mph /  3.7km/h 98% 0.00in /  0mm 283.5 W/m2 OVC
06:14 55.2 °F /  12.9 °C 54.7 °F /  12.6 °C 29.70in /  1005.6hPa SW 2.3mph /  3.7km/h   98% 0.00in /  0mm 280.5 W/m2 OVC
06:19 55.6 °F /  13.1 °C 55.0 °F /  12.8 °C 29.70in /  1005.6hPa SSW 1.2mph /  1.9km/h 1.2mph /  1.9km/h 98% 0.00in /  0mm 281.5 W/m2 OVC
06:24 55.9 °F /  13.3 °C 55.4 °F /  13 °C 29.70in /  1005.6hPa SSW 1.2mph /  1.9km/h 1.2mph /  1.9km/h 98% 0.00in /  0mm 290.6 W/m2 OVC
06:29 55.9 °F /  13.3 °C 55.4 °F /  13 °C 29.70in /  1005.6hPa SW 2.3mph /  3.7km/h 2.3mph /  3.7km/h 98% 0.00in /  0mm 297.6 W/m2 OVC
06:34 56.3 °F /  13.5 °C 55.7 °F /  13.2 °C 29.70in /  1005.6hPa WSW 2.3mph /  3.7km/h 2.3mph /  3.7km/h 98% 0.00in /  0mm 304.7 W/m2 OVC
06:39 56.5 °F /  13.6 °C 55.9 °F /  13.3 °C 29.70in /  1005.6hPa WSW 2.3mph /  3.7km/h 2.3mph /  3.7km/h 98% 0.00in /  0mm 311.8 W/m2 OVC
06:44 57.2 °F /  14 °C 56.6 °F /  13.7 °C 29.70in /  1005.6hPa West 3.5mph /  5.6km/h 3.5mph /  5.6km/h 98% 0.00in /  0mm 315.8 W/m2 OVC
06:49 57.4 °F /  14.1 °C 56.8 °F /  13.8 °C 29.72in /  1006.3hPa West 3.5mph /  5.6km/h 3.5mph /  5.6km/h 98% 0.00in /  0mm 317.8 W/m2 OVC
06:54 57.6 °F /  14.2 °C 57.0 °F /  13.9 °C 29.72in /  1006.3hPa WSW 1.2mph /  1.9km/h 1.2mph /  1.9km/h 98% 0.00in /  0mm 319.9 W/m2 OVC
06:59 57.7 °F /  14.3 °C 57.2 °F /  14 °C 29.72in /  1006.3hPa West 2.3mph /  3.7km/h 2.3mph /  3.7km/h 98% 0.00in /  0mm 331.0 W/m2 OVC
07:04 58.3 °F /  14.6 °C 57.7 °F /  14.3 °C 29.72in /  1006.3hPa West 2.3mph /  3.7km/h 2.3mph /  3.7km/h 98% 0.00in /  0mm 354.2 W/m2 OVC
07:09 58.5 °F /  14.7 °C 57.9 °F /  14.4 °C 29.72in /  1006.3hPa West 2.3mph /  3.7km/h 2.3mph /  3.7km/h 98% 0.00in /  0mm 351.2 W/m2 OVC
07:14 58.8 °F /  14.9 °C 58.3 °F /  14.6 °C 29.72in /  1006.3hPa WSW 2.3mph /  3.7km/h 2.3mph /  3.7km/h 98% 0.00in /  0mm 351.2 W/m2 OVC
07:19 58.8 °F /  14.9 °C 58.3 °F /  14.6 °C 29.72in /  1006.3hPa SW 2.3mph /  3.7km/h 2.3mph /  3.7km/h 98% 0.00in /  0mm 353.2 W/m2 OVC
07:24 58.8 °F /  14.9 °C 57.7 °F /  14.3 °C 29.72in /  1006.3hPa SW 3.5mph /  5.6km/h 3.5mph /  5.6km/h 96% 0.00in /  0mm 343.1 W/m2 OVC
07:29 58.8 °F /  14.9 °C 58.3 °F /  14.6 °C 29.72in /  1006.3hPa WSW 3.5mph /  5.6km/h 3.5mph /  5.6km/h 98% 0.00in /  0mm 331.0 W/m2 OVC
07:34 58.8 °F /  14.9 °C 58.3 °F /  14.6 °C 29.72in /  1006.3hPa West 3.5mph /  5.6km/h 3.5mph /  5.6km/h 98% 0.00in /  0mm 333.0 W/m2 OVC
07:39 59.0 °F /  15 °C 58.4 °F /  14.7 °C 29.72in /  1006.3hPa WSW 2.3mph /  3.7km/h 2.3mph /  3.7km/h 98% 0.00in /  0mm 334.0 W/m2 OVC
07:44 59.2 °F /  15.1 °C 58.6 °F /  14.8 °C 29.73in /  1006.7hPa SW 2.3mph /  3.7km/h 2.3mph /  3.7km/h 98% 0.00in /  0mm 340.1 W/m2 OVC
07:49 59.2 °F /  15.1 °C 58.6 °F /  14.8 °C 29.72in /  1006.3hPa WSW 2.3mph /  3.7km/h 2.3mph /  3.7km/h 98% 0.00in /  0mm 356.2 W/m2 OVC
07:54 59.4 °F /  15.2 °C 58.2 °F /  14.6 °C 29.73in /  1006.7hPa SW 2.3mph /  3.7km/h 2.3mph /  3.7km/h 96% 0.00in /  0mm 363.3 W/m2 OVC
07:59 59.7 °F /  15.4 °C 58.6 °F /  14.8 °C 29.73in /  1006.7hPa WSW 2.3mph /  3.7km/h 2.3mph /  3.7km/h 96% 0.00in /  0mm 354.2 W/m2 OVC
08:04 60.1 °F /  15.6 °C 58.9 °F /  14.9 °C 29.73in /  1006.7hPa West 2.3mph /  3.7km/h 2.3mph /  3.7km/h 96% 0.00in /  0mm 369.3 W/m2 BKN
08:09 60.3 °F /  15.7 °C 58.8 °F /  14.9 °C 29.73in /  1006.7hPa West 3.5mph /  5.6km/h 3.5mph /  5.6km/h 95% 0.00in /  0mm 433.0 W/m2 BKN
08:14 60.4 °F /  15.8 °C 59.0 °F /  15 °C 29.73in /  1006.7hPa West 3.5mph /  5.6km/h 3.5mph /  5.6km/h 95% 0.00in /  0mm 423.9 W/m2 BKN
08:19 60.6 °F /  15.9 °C 59.2 °F /  15.1 °C 29.73in /  1006.7hPa WSW 3.5mph /  5.6km/h 3.5mph /  5.6km/h 95% 0.00in /  0mm 428.9 W/m2 BKN
08:24 60.6 °F /  15.9 °C 58.6 °F /  14.8 °C 29.74in /  1007hPa WSW 3.5mph /  5.6km/h 3.5mph /  5.6km/h 93% 0.00in /  0mm 435.0 W/m2 BKN
08:29 61.3 °F /  16.3 °C 59.3 °F /  15.2 °C 29.74in /  1007hPa WSW 3.5mph /  5.6km/h 3.5mph /  5.6km/h 93% 0.00in /  0mm 362.3 W/m2 BKN
08:34 61.5 °F /  16.4 °C 58.9 °F /  14.9 °C 29.73in /  1006.7hPa WSW 4.6mph /  7.4km/h 4.6mph /  7.4km/h 91% 0.00in /  0mm 396.6 W/m2 BKN
08:39 61.7 °F /  16.5 °C 59.0 °F /  15 °C 29.73in /  1006.7hPa West 4.6mph /  7.4km/h 4.6mph /  7.4km/h 91% 0.00in /  0mm 401.7 W/m2 BKN
08:44 62.1 °F /  16.7 °C 59.4 °F /  15.2 °C 29.74in /  1007hPa WNW 4.6mph /  7.4km/h 4.6mph /  7.4km/h 91% 0.00in /  0mm 386.5 W/m2 BKN
08:49 62.1 °F /  16.7 °C 58.5 °F /  14.7 °C 29.74in /  1007hPa WNW 3.5mph /  5.6km/h 3.5mph /  5.6km/h 88% 0.00in /  0mm 401.7 W/m2 BKN
08:54 62.4 °F /  16.9 °C 58.8 °F /  14.9 °C 29.73in /  1006.7hPa WNW 3.5mph /  5.6km/h 3.5mph /  5.6km/h 88% 0.00in /  0mm 401.7 W/m2 BKN
08:59 63.1 °F /  17.3 °C 58.9 °F /  14.9 °C 29.74in /  1007hPa South 3.5mph /  5.6km/h 3.5mph /  5.6km/h 86% 0.00in /  0mm 712.8 W/m2 BKN
09:04 63.0 °F /  17.2 °C 58.4 °F /  14.7 °C 29.73in /  1006.7hPa WNW 2.3mph /  3.7km/h 2.3mph /  3.7km/h 85% 0.00in /  0mm 784.5 W/m2 OVC
09:09 63.1 °F /  17.3 °C 58.6 °F /  14.8 °C 29.74in /  1007hPa WNW 3.5mph /  5.6km/h 3.5mph /  5.6km/h 85% 0.00in /  0mm 785.5 W/m2 OVC
09:14 63.7 °F /  17.6 °C 59.1 °F /  15.1 °C 29.73in /  1006.7hPa WNW 3.5mph /  5.6km/h 3.5mph /  5.6km/h 85% 0.00in /  0mm 791.5 W/m2 OVC
09:19 63.3 °F /  17.4 °C 58.1 °F /  14.5 °C 29.74in /  1007hPa WNW 3.5mph /  5.6km/h 3.5mph /  5.6km/h 83% 0.00in /  0mm 771.3 W/m2 OVC
09:24 63.9 °F /  17.7 °C 58.6 °F /  14.8 °C 29.74in /  1007hPa WNW 3.5mph /  5.6km/h 3.5mph /  5.6km/h 83% 0.00in /  0mm 786.5 W/m2 OVC
09:29 63.9 °F /  17.7 °C 57.6 °F /  14.2 °C 29.74in /  1007hPa WNW 5.8mph /  9.3km/h 5.8mph /  9.3km/h 80% 0.00in /  0mm 798.6 W/m2 OVC
09:34 63.9 °F /  17.7 °C 57.6 °F /  14.2 °C 29.73in /  1006.7hPa WNW 5.8mph /  9.3km/h 5.8mph /  9.3km/h 80% 0.00in /  0mm 820.8 W/m2 OVC
09:39 63.9 °F /  17.7 °C 57.9 °F /  14.4 °C 29.74in /  1007hPa West 5.8mph /  9.3km/h 5.8mph /  9.3km/h 81% 0.00in /  0mm 823.8 W/m2 OVC
09:44 64.6 °F /  18.1 °C 58.3 °F /  14.6 °C 29.74in /  1007hPa West 4.6mph /  7.4km/h 4.6mph /  7.4km/h 80% 0.00in /  0mm 826.9 W/m2 OVC
09:49 64.9 °F /  18.3 °C 58.3 °F /  14.6 °C 29.74in /  1007hPa West 4.6mph /  7.4km/h 4.6mph /  7.4km/h 79% 0.00in /  0mm 839.0 W/m2 OVC
09:54 64.8 °F /  18.2 °C 57.0 °F /  13.9 °C 29.74in /  1007hPa West 3.5mph /  5.6km/h 3.5mph /  5.6km/h 76% 0.00in /  0mm 839.0 W/m2 OVC
09:59 64.9 °F /  18.3 °C 57.9 °F /  14.4 °C 29.74in /  1007hPa West 3.5mph /  5.6km/h 3.5mph /  5.6km/h 78% 0.00in /  0mm 830.9 W/m2 OVC
10:04 64.8 °F /  18.2 °C 57.7 °F /  14.3 °C 29.74in /  1007hPa WSW 3.5mph /  5.6km/h 3.5mph /  5.6km/h 78% 0.00in /  0mm 830.9 W/m2 OVC
10:09 64.6 °F /  18.1 °C 58.3 °F /  14.6 °C 29.74in /  1007hPa SW 3.5mph /  5.6km/h 3.5mph /  5.6km/h 80% 0.00in /  0mm 820.8 W/m2 OVC
10:14 63.9 °F /  17.7 °C 57.6 °F /  14.2 °C 29.74in /  1007hPa WSW 3.5mph /  5.6km/h 3.5mph /  5.6km/h 80% 0.00in /  0mm 599.6 W/m2 OVC
10:19 64.4 °F /  18 °C 57.4 °F /  14.1 °C 29.73in /  1006.7hPa WSW 4.6mph /  7.4km/h 4.6mph /  7.4km/h 78% 0.00in /  0mm 404.7 W/m2 OVC
10:24 64.6 °F /  18.1 °C 58.3 °F /  14.6 °C 29.75in /  1007.3hPa West 4.6mph /  7.4km/h 4.6mph /  7.4km/h 80% 0.00in /  0mm 547.1 W/m2 OVC
10:29 62.4 °F /  16.9 °C 58.8 °F /  14.9 °C 29.73in /  1006.7hPa West 4.6mph /  7.4km/h 4.6mph /  7.4km/h 88% 0.03in /  0.76mm 644.1 W/m2 RA
10:34 61.7 °F /  16.5 °C 60.5 °F /  15.8 °C 29.73in /  1006.7hPa SSW 3.5mph /  5.6km/h   96% 0.03in /  0.76mm 364.3 W/m2 RA
10:39 62.4 °F /  16.9 °C 59.8 °F /  15.4 °C 29.73in /  1006.7hPa SSE 2.3mph /  3.7km/h 2.3mph /  3.7km/h 91% 0.03in /  0.76mm 353.2 W/m2 OVC
10:44 63.7 °F /  17.6 °C 61.0 °F /  16.1 °C 29.73in /  1006.7hPa SSE 2.3mph /  3.7km/h 2.3mph /  3.7km/h 91% 0.03in /  0.76mm 645.1 W/m2 OVC
10:49 64.4 °F /  18 °C 60.8 °F /  16 °C 29.73in /  1006.7hPa South 2.3mph /  3.7km/h 2.3mph /  3.7km/h 88% 0.03in /  0.76mm 872.3 W/m2 OVC
10:54 64.9 °F /  18.3 °C 60.3 °F /  15.7 °C 29.73in /  1006.7hPa South 2.3mph /  3.7km/h 2.3mph /  3.7km/h 85% 0.03in /  0.76mm 867.3 W/m2 OVC
10:59 64.4 °F /  18 °C 61.7 °F /  16.5 °C 29.73in /  1006.7hPa South 2.3mph /  3.7km/h 2.3mph /  3.7km/h 91% 0.03in /  0.76mm 853.1 W/m2 OVC
11:04 63.7 °F /  17.6 °C 61.6 °F /  16.4 °C 29.73in /  1006.7hPa SSE 3.5mph /  5.6km/h 3.5mph /  5.6km/h 93% 0.03in /  0.76mm 813.8 W/m2 OVC
11:09 63.0 °F /  17.2 °C 60.0 °F /  15.6 °C 29.73in /  1006.7hPa South 3.5mph /  5.6km/h 3.5mph /  5.6km/h 90% 0.03in /  0.76mm 534.0 W/m2 OVC
11:14 63.1 °F /  17.3 °C 60.2 °F /  15.7 °C 29.73in /  1006.7hPa SSW 3.5mph /  5.6km/h 3.5mph /  5.6km/h 90% 0.03in /  0.76mm 792.5 W/m2 OVC
11:19 64.8 °F /  18.2 °C 61.1 °F /  16.2 °C 29.73in /  1006.7hPa SW 3.5mph /  5.6km/h 3.5mph /  5.6km/h 88% 0.03in /  0.76mm 778.4 W/m2 OVC
11:24 66.0 °F /  18.9 °C 61.7 °F /  16.5 °C 29.73in /  1006.7hPa SW 3.5mph /  5.6km/h 3.5mph /  5.6km/h 86% 0.03in /  0.76mm 883.4 W/m2 OVC
11:29 66.4 °F /  19.1 °C 60.0 °F /  15.6 °C 29.73in /  1006.7hPa SW 3.5mph /  5.6km/h 3.5mph /  5.6km/h 80% 0.00in /  0mm 889.5 W/m2 OVC
11:34 65.1 °F /  18.4 °C 60.5 °F /  15.8 °C 29.72in /  1006.3hPa SW 4.6mph /  7.4km/h 4.6mph /  7.4km/h 85% 0.00in /  0mm 865.3 W/m2 OVC
11:39 64.9 °F /  18.3 °C 61.9 °F /  16.6 °C 29.72in /  1006.3hPa SW 4.6mph /  7.4km/h 4.6mph /  7.4km/h 90% 0.00in /  0mm 777.4 W/m2 OVC
11:44 66.9 °F /  19.4 °C 61.6 °F /  16.4 °C 29.72in /  1006.3hPa SSW 3.5mph /  5.6km/h 3.5mph /  5.6km/h 83% 0.00in /  0mm 862.2 W/m2 OVC
11:49 66.4 °F /  19.1 °C 60.4 °F /  15.8 °C 29.72in /  1006.3hPa WSW 3.5mph /  5.6km/h 3.5mph /  5.6km/h 81% 0.00in /  0mm 888.5 W/m2 OVC
11:54 63.3 °F /  17.4 °C 60.3 °F /  15.7 °C 29.72in /  1006.3hPa WNW 3.5mph /  5.6km/h 3.5mph /  5.6km/h 90% 0.06in /  1.52mm 742.0 W/m2 RA
11:59 61.2 °F /  16.2 °C 58.5 °F /  14.7 °C 29.72in /  1006.3hPa NW 3.5mph /  5.6km/h 3.5mph /  5.6km/h 91% 0.08in /  2.03mm 360.3 W/m2 RA
12:04 61.2 °F /  16.2 °C 59.7 °F /  15.4 °C 29.72in /  1006.3hPa SW 3.5mph /  5.6km/h   95% 0.09in /  2.29mm 412.8 W/m2 RA
12:09 61.9 °F /  16.6 °C 59.8 °F /  15.4 °C 29.73in /  1006.7hPa SSW 2.3mph /  3.7km/h   93% 0.09in /  2.29mm 800.6 W/m2 RA
12:13 63.3 °F /  17.4 °C 60.6 °F /  15.9 °C 29.73in /  1006.7hPa SW 1.2mph /  1.9km/h 1.2mph /  1.9km/h 91% 0.09in /  2.29mm 859.2 W/m2 BKN
12:18 64.0 °F /  17.8 °C 59.4 °F /  15.2 °C 29.72in /  1006.3hPa West 2.3mph /  3.7km/h 2.3mph /  3.7km/h 85% 0.09in /  2.29mm 905.7 W/m2 BKN
12:23 63.3 °F /  17.4 °C 59.1 °F /  15.1 °C 29.72in /  1006.3hPa West 3.5mph /  5.6km/h 3.5mph /  5.6km/h 86% 0.09in /  2.29mm 861.2 W/m2 BKN
12:28 63.3 °F /  17.4 °C 59.7 °F /  15.4 °C 29.72in /  1006.3hPa West 3.5mph /  5.6km/h 3.5mph /  5.6km/h 88% 0.09in /  2.29mm 727.9 W/m2 BKN
12:33 63.0 °F /  17.2 °C 60.9 °F /  16.1 °C 29.72in /  1006.3hPa SSW 3.5mph /  5.6km/h   93% 0.09in /  2.29mm 435.0 W/m2 BKN
12:38 62.8 °F /  17.1 °C 61.3 °F /  16.3 °C 29.73in /  1006.7hPa South 1.2mph /  1.9km/h   95% 0.09in /  2.29mm 414.8 W/m2 BKN
12:43 62.8 °F /  17.1 °C 61.6 °F /  16.4 °C 29.73in /  1006.7hPa Calm     96% 0.09in /  2.29mm 405.7 W/m2 BKN
12:48 63.0 °F /  17.2 °C 60.9 °F /  16.1 °C 29.72in /  1006.3hPa Calm     93% 0.09in /  2.29mm 386.5 W/m2 BKN
12:53 63.1 °F /  17.3 °C 61.1 °F /  16.2 °C 29.73in /  1006.7hPa SSW 2.3mph /  3.7km/h 2.3mph /  3.7km/h 93% 0.04in /  1.02mm 385.5 W/m2 BKN
12:58 63.9 °F /  17.7 °C 61.2 °F /  16.2 °C 29.73in /  1006.7hPa SW 2.3mph /  3.7km/h 2.3mph /  3.7km/h 91% 0.01in /  0.25mm 524.9 W/m2 BKN
13:03 63.7 °F /  17.6 °C 61.6 °F /  16.4 °C 29.72in /  1006.3hPa WSW 2.3mph /  3.7km/h 2.3mph /  3.7km/h 93% 0.00in /  0mm 838.0 W/m2 OVC
13:08 64.9 °F /  18.3 °C 60.6 °F /  15.9 °C 29.72in /  1006.3hPa WNW 2.3mph /  3.7km/h 2.3mph /  3.7km/h 86% 0.00in /  0mm 867.3 W/m2 OVC
13:13 66.6 °F /  19.2 °C 61.2 °F /  16.2 °C 29.72in /  1006.3hPa WSW 2.3mph /  3.7km/h 2.3mph /  3.7km/h 83% 0.00in /  0mm 884.4 W/m2 OVC
13:18 67.6 °F /  19.8 °C 60.9 °F /  16.1 °C 29.72in /  1006.3hPa SSW 3.5mph /  5.6km/h 3.5mph /  5.6km/h 79% 0.00in /  0mm 900.6 W/m2 OVC
13:23 65.5 °F /  18.6 °C 59.5 °F /  15.3 °C 29.72in /  1006.3hPa WNW 3.5mph /  5.6km/h 3.5mph /  5.6km/h 81% 0.00in /  0mm 784.5 W/m2 OVC
13:28 65.8 °F /  18.8 °C 59.1 °F /  15.1 °C 29.73in /  1006.7hPa NW 3.5mph /  5.6km/h 3.5mph /  5.6km/h 79% 0.00in /  0mm 406.7 W/m2 OVC
13:33 64.8 °F /  18.2 °C 59.5 °F /  15.3 °C 29.74in /  1007hPa WNW 3.5mph /  5.6km/h 3.5mph /  5.6km/h 83% 0.00in /  0mm 323.9 W/m2 OVC
13:38 63.0 °F /  17.2 °C 59.3 °F /  15.2 °C 29.74in /  1007hPa West 3.5mph /  5.6km/h 3.5mph /  5.6km/h 88% 0.10in /  2.54mm 327.9 W/m2 RA
13:43 60.4 °F /  15.8 °C 58.4 °F /  14.7 °C 29.74in /  1007hPa WSW 3.5mph /  5.6km/h 3.5mph /  5.6km/h 93% 0.13in /  3.3mm 344.1 W/m2 RA
13:48 60.3 °F /  15.7 °C 58.8 °F /  14.9 °C 29.74in /  1007hPa SW 2.3mph /  3.7km/h 2.3mph /  3.7km/h 95% 0.13in /  3.3mm 366.3 W/m2 RA
13:53 61.0 °F /  16.1 °C 58.9 °F /  14.9 °C 29.74in /  1007hPa West 2.3mph /  3.7km/h 2.3mph /  3.7km/h 93% 0.13in /  3.3mm 688.5 W/m2 OVC
13:58 63.0 °F /  17.2 °C 60.3 °F /  15.7 °C 29.73in /  1006.7hPa WNW 2.3mph /  3.7km/h 2.3mph /  3.7km/h 91% 0.13in /  3.3mm 883.4 W/m2 OVC
14:03 63.0 °F /  17.2 °C 60.3 °F /  15.7 °C 29.73in /  1006.7hPa NNW 4.6mph /  7.4km/h 4.6mph /  7.4km/h 91% 0.13in /  3.3mm 883.4 W/m2 -RA
14:08 63.0 °F /  17.2 °C 58.7 °F /  14.8 °C 29.73in /  1006.7hPa WNW 4.6mph /  7.4km/h 4.6mph /  7.4km/h 86% 0.13in /  3.3mm 890.5 W/m2 -RA
14:13 63.1 °F /  17.3 °C 60.2 °F /  15.7 °C 29.73in /  1006.7hPa WNW 3.5mph /  5.6km/h 3.5mph /  5.6km/h 90% 0.13in /  3.3mm 874.3 W/m2 -RA
14:18 63.3 °F /  17.4 °C 60.3 °F /  15.7 °C 29.73in /  1006.7hPa NW 3.5mph /  5.6km/h 3.5mph /  5.6km/h 90% 0.13in /  3.3mm 871.3 W/m2 -RA
14:23 63.9 °F /  17.7 °C 59.3 °F /  15.2 °C 29.73in /  1006.7hPa NNW 6.9mph /  11.1km/h 6.9mph /  11.1km/h 85% 0.13in /  3.3mm 863.2 W/m2 -RA
14:28 64.0 °F /  17.8 °C 59.8 °F /  15.4 °C 29.73in /  1006.7hPa WNW 6.9mph /  11.1km/h 6.9mph /  11.1km/h 86% 0.13in /  3.3mm 861.2 W/m2 -RA
14:33 64.9 °F /  18.3 °C 60.3 °F /  15.7 °C 29.73in /  1006.7hPa WNW 3.5mph /  5.6km/h 3.5mph /  5.6km/h 85% 0.13in /  3.3mm 860.2 W/m2 -RA
14:38 64.9 °F /  18.3 °C 59.0 °F /  15 °C 29.73in /  1006.7hPa NW 3.5mph /  5.6km/h 3.5mph /  5.6km/h 81% 0.03in /  0.76mm 863.2 W/m2 -RA
14:43 65.5 °F /  18.6 °C 59.1 °F /  15.1 °C 29.73in /  1006.7hPa West 3.5mph /  5.6km/h 3.5mph /  5.6km/h 80% 0.00in /  0mm 870.3 W/m2 -RA
14:48 64.9 °F /  18.3 °C 59.0 °F /  15 °C 29.73in /  1006.7hPa NW 3.5mph /  5.6km/h 3.5mph /  5.6km/h 81% 0.00in /  0mm 866.3 W/m2 -RA
14:53 65.7 °F /  18.7 °C 59.3 °F /  15.2 °C 29.73in /  1006.7hPa North 3.5mph /  5.6km/h 3.5mph /  5.6km/h 80% 0.00in /  0mm 855.2 W/m2 -RA
14:58 66.0 °F /  18.9 °C 60.0 °F /  15.6 °C 29.73in /  1006.7hPa NNW 3.5mph /  5.6km/h 3.5mph /  5.6km/h 81% 0.00in /  0mm 848.1 W/m2 -RA
15:03 65.8 °F /  18.8 °C 59.8 °F /  15.4 °C 29.73in /  1006.7hPa WNW 3.5mph /  5.6km/h 3.5mph /  5.6km/h 81% 0.00in /  0mm 852.1 W/m2 OVC
15:08 65.7 °F /  18.7 °C 59.0 °F /  15 °C 29.73in /  1006.7hPa NW 3.5mph /  5.6km/h 3.5mph /  5.6km/h 79% 0.00in /  0mm 832.9 W/m2 OVC
15:13 66.0 °F /  18.9 °C 59.7 °F /  15.4 °C 29.73in /  1006.7hPa WNW 3.5mph /  5.6km/h 3.5mph /  5.6km/h 80% 0.00in /  0mm 821.8 W/m2 OVC
15:18 67.3 °F /  19.6 °C 60.2 °F /  15.7 °C 29.73in /  1006.7hPa WSW 3.5mph /  5.6km/h 3.5mph /  5.6km/h 78% 0.00in /  0mm 847.1 W/m2 OVC
15:23 67.1 °F /  19.5 °C 58.9 °F /  14.9 °C 29.73in /  1006.7hPa West 3.5mph /  5.6km/h 3.5mph /  5.6km/h 75% 0.00in /  0mm 873.3 W/m2 OVC
15:28 67.5 °F /  19.7 °C 60.7 °F /  15.9 °C 29.74in /  1007hPa WNW 3.5mph /  5.6km/h 3.5mph /  5.6km/h 79% 0.00in /  0mm 858.2 W/m2 OVC
15:33 67.6 °F /  19.8 °C 60.9 °F /  16.1 °C 29.73in /  1006.7hPa NNW 3.5mph /  5.6km/h 3.5mph /  5.6km/h 79% 0.00in /  0mm 867.3 W/m2 OVC
15:38 66.6 °F /  19.2 °C 59.5 °F /  15.3 °C 29.73in /  1006.7hPa NW 4.6mph /  7.4km/h 4.6mph /  7.4km/h 78% 0.00in /  0mm 866.3 W/m2 OVC
15:43 66.4 °F /  19.1 °C 61.1 °F /  16.2 °C 29.73in /  1006.7hPa NW 4.6mph /  7.4km/h 4.6mph /  7.4km/h 83% 0.00in /  0mm 621.8 W/m2 OVC
15:48 66.6 °F /  19.2 °C 59.8 °F /  15.4 °C 29.73in /  1006.7hPa NNW 4.6mph /  7.4km/h 4.6mph /  7.4km/h 79% 0.00in /  0mm 548.1 W/m2 OVC
15:49 66.6 °F /  19.2 °C 59.8 °F /  15.4 °C 29.73in /  1006.7hPa NW 3.5mph /  5.6km/h 3.5mph /  5.6km/h 79% 0.00in /  0mm 548.1 W/m2 OVC
15:59 68.5 °F /  20.3 °C 58.4 °F /  14.7 °C 29.73in /  1006.7hPa West 3.5mph /  5.6km/h 3.5mph /  5.6km/h 70% 0.00in /  0mm 739.0 W/m2 OVC
16:04 69.1 °F /  20.6 °C 56.8 °F /  13.8 °C 29.73in /  1006.7hPa WNW 3.5mph /  5.6km/h 3.5mph /  5.6km/h 65% 0.00in /  0mm 726.0 W/m2 OVC
16:09 68.9 °F /  20.5 °C 57.1 °F /  13.9 °C 29.73in /  1006.7hPa NNE 3.5mph /  5.6km/h 3.5mph /  5.6km/h 66% 0.00in /  0mm 714.0 W/m2 OVC
16:14 68.5 °F /  20.3 °C 56.7 °F /  13.7 °C 29.73in /  1006.7hPa NNW 3.5mph /  5.6km/h 3.5mph /  5.6km/h 66% 0.00in /  0mm 701.0 W/m2 OVC
16:19 68.4 °F /  20.2 °C 58.6 °F /  14.8 °C 29.73in /  1006.7hPa WNW 8.1mph /  13km/h 8.1mph /  13km/h 71% 0.02in /  0.51mm 467.3 W/m2 RA
16:24 65.5 °F /  18.6 °C 60.2 °F /  15.7 °C 29.73in /  1006.7hPa WNW 8.1mph /  13km/h 8.1mph /  13km/h 83% 0.10in /  2.54mm 330.0 W/m2 RA
16:29 64.8 °F /  18.2 °C 60.5 °F /  15.8 °C 29.73in /  1006.7hPa NW 8.1mph /  13km/h 8.1mph /  13km/h 86% 0.10in /  2.54mm 330.0 W/m2 RA
16:34 63.7 °F /  17.6 °C 61.0 °F /  16.1 °C 29.73in /  1006.7hPa WSW 1.2mph /  1.9km/h   91% 0.10in /  2.54mm 344.1 W/m2 OVC
16:39 64.0 °F /  17.8 °C 60.4 °F /  15.8 °C 29.73in /  1006.7hPa WSW 2.3mph /  3.7km/h 2.3mph /  3.7km/h 88% 0.10in /  2.54mm 367.3 W/m2 OVC
16:44 63.9 °F /  17.7 °C 60.9 °F /  16.1 °C 29.73in /  1006.7hPa WSW 2.3mph /  3.7km/h 2.3mph /  3.7km/h 90% 0.10in /  2.54mm 363.3 W/m2 OVC
16:49 63.1 °F /  17.3 °C 60.5 °F /  15.8 °C 29.75in /  1007.3hPa WSW 3.5mph /  5.6km/h 3.5mph /  5.6km/h 91% 0.11in /  2.79mm 343.1 W/m2 RA
16:54 63.0 °F /  17.2 °C 60.3 °F /  15.7 °C 29.75in /  1007.3hPa West 4.6mph /  7.4km/h 4.6mph /  7.4km/h 91% 0.11in /  2.79mm 347.1 W/m2 RA
16:59 61.5 °F /  16.4 °C 60.1 °F /  15.6 °C 29.75in /  1007.3hPa WNW 4.6mph /  7.4km/h 4.6mph /  7.4km/h 95% 0.11in /  2.79mm 363.3 W/m2 OVC
17:04 61.5 °F /  16.4 °C 60.1 °F /  15.6 °C 29.75in /  1007.3hPa NNW 2.3mph /  3.7km/h 2.3mph /  3.7km/h 95% 0.11in /  2.79mm 363.3 W/m2 OVC
17:09 61.9 °F /  16.6 °C 59.2 °F /  15.1 °C 29.75in /  1007.3hPa SW 2.3mph /  3.7km/h 2.3mph /  3.7km/h 91% 0.11in /  2.79mm 363.3 W/m2 OVC
17:14 63.0 °F /  17.2 °C 60.3 °F /  15.7 °C 29.74in /  1007hPa West 1.2mph /  1.9km/h 1.2mph /  1.9km/h 91% 0.11in /  2.79mm 530.0 W/m2 OVC
17:19 63.9 °F /  17.7 °C 61.2 °F /  16.2 °C 29.74in /  1007hPa NW 2.3mph /  3.7km/h 2.3mph /  3.7km/h 91% 0.09in /  2.29mm 515.0 W/m2 OVC
17:24 65.5 °F /  18.6 °C 61.2 °F /  16.2 °C 29.73in /  1006.7hPa WNW 3.5mph /  5.6km/h 3.5mph /  5.6km/h 86% 0.01in /  0.25mm 500.0 W/m2 OVC
17:29 65.1 °F /  18.4 °C 60.8 °F /  16 °C 29.73in /  1006.7hPa WNW 3.5mph /  5.6km/h 3.5mph /  5.6km/h 86% 0.01in /  0.25mm 485.0 W/m2 OVC
17:34 66.6 °F /  19.2 °C 61.2 °F /  16.2 °C 29.73in /  1006.7hPa NW 3.5mph /  5.6km/h 3.5mph /  5.6km/h 83% 0.01in /  0.25mm 469.0 W/m2 OVC
17:39 66.9 °F /  19.4 °C 61.6 °F /  16.4 °C 29.73in /  1006.7hPa WNW 3.5mph /  5.6km/h 3.5mph /  5.6km/h 83% 0.01in /  0.25mm 454.0 W/m2 OVC
17:44 67.1 °F /  19.5 °C 61.1 °F /  16.2 °C 29.73in /  1006.7hPa WNW 3.5mph /  5.6km/h 3.5mph /  5.6km/h 81% 0.01in /  0.25mm 439.0 W/m2 OVC
17:49 66.9 °F /  19.4 °C 60.9 °F /  16.1 °C 29.73in /  1006.7hPa NW 3.5mph /  5.6km/h 3.5mph /  5.6km/h 81% 0.00in /  0mm 423.0 W/m2 OVC
17:54 68.0 °F /  20 °C 60.2 °F /  15.7 °C 29.73in /  1006.7hPa SSW 2.3mph /  3.7km/h 2.3mph /  3.7km/h 76% 0.00in /  0mm 408.0 W/m2 OVC
17:59 67.6 °F /  19.8 °C 59.4 °F /  15.2 °C 29.73in /  1006.7hPa WNW 3.5mph /  5.6km/h 3.5mph /  5.6km/h 75% 0.00in /  0mm 392.0 W/m2 OVC
18:04 66.6 °F /  19.2 °C 57.6 °F /  14.2 °C 29.73in /  1006.7hPa WNW 3.5mph /  5.6km/h 3.5mph /  5.6km/h 73% 0.00in /  0mm 377.0 W/m2 OVC
18:09 64.4 °F /  18 °C 58.1 °F /  14.5 °C 29.74in /  1007hPa WNW 3.5mph /  5.6km/h 3.5mph /  5.6km/h 80% 0.00in /  0mm 361.0 W/m2 OVC
18:14 63.9 °F /  17.7 °C 59.3 °F /  15.2 °C 29.74in /  1007hPa WSW 3.5mph /  5.6km/h 3.5mph /  5.6km/h 85% 0.00in /  0mm 346.0 W/m2 OVC
18:19 63.9 °F /  17.7 °C 59.6 °F /  15.3 °C 29.74in /  1007hPa WNW 1.2mph /  1.9km/h 1.2mph /  1.9km/h 86% 0.00in /  0mm 330.0 W/m2 OVC
18:24 63.9 °F /  17.7 °C 58.6 °F /  14.8 °C 29.74in /  1007hPa West 1.2mph /  1.9km/h 1.2mph /  1.9km/h 83% 0.00in /  0mm 315.0 W/m2 OVC
18:25 63.9 °F /  17.7 °C 59.6 °F /  15.3 °C 29.74in /  1007hPa West 1.2mph /  1.9km/h 1.2mph /  1.9km/h 86% 0.00in /  0mm 365.3 W/m2 OVC
18:30 64.0 °F /  17.8 °C 58.8 °F /  14.9 °C 29.74in /  1007hPa WSW 2.3mph /  3.7km/h 2.3mph /  3.7km/h 83% 0.00in /  0mm 374.4 W/m2 OVC
18:35 64.4 °F /  18 °C 59.1 °F /  15.1 °C 29.75in /  1007.3hPa West 2.3mph /  3.7km/h 2.3mph /  3.7km/h 83% 0.00in /  0mm 362.3 W/m2 OVC
18:40 64.0 °F /  17.8 °C 59.8 °F /  15.4 °C 29.75in /  1007.3hPa WNW 2.3mph /  3.7km/h   86% 0.00in /  0mm 360.3 W/m2 OVC
18:45 63.7 °F /  17.6 °C 60.1 °F /  15.6 °C 29.75in /  1007.3hPa WNW 1.2mph /  1.9km/h   88% 0.00in /  0mm 348.1 W/m2 OVC
18:50 63.3 °F /  17.4 °C 60.6 °F /  15.9 °C 29.75in /  1007.3hPa Calm     91% 0.00in /  0mm 347.1 W/m2 OVC
18:55 64.9 °F /  18.3 °C 60.6 °F /  15.9 °C 29.74in /  1007hPa Calm     86% 0.00in /  0mm 347.1 W/m2 OVC
19:00 65.1 °F /  18.4 °C 60.8 °F /  16 °C 29.75in /  1007.3hPa Calm     86% 0.00in /  0mm 337.0 W/m2 OVC
19:05 65.1 °F /  18.4 °C 60.8 °F /  16 °C 29.75in /  1007.3hPa Calm     86% 0.00in /  0mm 328.9 W/m2 SCT
19:10 65.1 °F /  18.4 °C 61.5 °F /  16.4 °C 29.75in /  1007.3hPa Calm     88% 0.00in /  0mm 330.0 W/m2 SCT
19:15 64.9 °F /  18.3 °C 61.9 °F /  16.6 °C 29.75in /  1007.3hPa Calm     90% 0.00in /  0mm 321.9 W/m2 SCT
19:18 64.8 °F /  18.2 °C 61.8 °F /  16.6 °C 29.75in /  1007.3hPa Calm     90% 0.00in /  0mm 330.0 W/m2 SCT
19:23 64.4 °F /  18 °C 61.7 °F /  16.5 °C 29.75in /  1007.3hPa Calm     91% 0.00in /  0mm 330.0 W/m2 SCT
19:28 64.0 °F /  17.8 °C 61.4 °F /  16.3 °C 29.75in /  1007.3hPa Calm     91% 0.00in /  0mm 309.8 W/m2 SCT
19:33 63.9 °F /  17.7 °C 61.2 °F /  16.2 °C 29.75in /  1007.3hPa Calm     91% 0.00in /  0mm 281.5 W/m2 SCT
19:38 63.7 °F /  17.6 °C 61.0 °F /  16.1 °C 29.76in /  1007.7hPa WSW 1.2mph /  1.9km/h 1.2mph /  1.9km/h 91% 0.00in /  0mm 250.2 W/m2 SCT
19:43 62.4 °F /  16.9 °C 59.8 °F /  15.4 °C 29.75in /  1007.3hPa SW 3.5mph /  5.6km/h 3.5mph /  5.6km/h 91% 0.02in /  0.51mm 230.0 W/m2 RA
19:48 61.3 °F /  16.3 °C 58.7 °F /  14.8 °C 29.75in /  1007.3hPa WNW 6.9mph /  11.1km/h 6.9mph /  11.1km/h 91% 0.02in /  0.51mm 241.1 W/m2 RA
19:53 61.0 °F /  16.1 °C 58.3 °F /  14.6 °C 29.76in /  1007.7hPa West 6.9mph /  11.1km/h 6.9mph /  11.1km/h 91% 0.02in /  0.51mm 270.4 W/m2 SCT
19:58 60.3 °F /  15.7 °C 58.2 °F /  14.6 °C 29.76in /  1007.7hPa WSW 4.6mph /  7.4km/h 4.6mph /  7.4km/h 93% 0.02in /  0.51mm 278.4 W/m2 SCT
20:03 60.1 °F /  15.6 °C 58.0 °F /  14.4 °C 29.76in /  1007.7hPa WNW 4.6mph /  7.4km/h 4.6mph /  7.4km/h 93% 0.02in /  0.51mm 273.4 W/m2 OVC
20:08 59.9 °F /  15.5 °C 57.9 °F /  14.4 °C 29.76in /  1007.7hPa West 3.5mph /  5.6km/h 3.5mph /  5.6km/h 93% 0.02in /  0.51mm 267.3 W/m2 OVC
20:13 59.7 °F /  15.4 °C 57.7 °F /  14.3 °C 29.76in /  1007.7hPa WSW 3.5mph /  5.6km/h 3.5mph /  5.6km/h 93% 0.02in /  0.51mm 33.0 W/m2 OVC
20:18 59.4 °F /  15.2 °C 58.2 °F /  14.6 °C 29.76in /  1007.7hPa SW 3.5mph /  5.6km/h 3.5mph /  5.6km/h 96% 0.02in /  0.51mm 258.3 W/m2 OVC
20:23 59.4 °F /  15.2 °C 58.2 °F /  14.6 °C 29.76in /  1007.7hPa WSW 3.5mph /  5.6km/h 3.5mph /  5.6km/h 96% 0.02in /  0.51mm 257.2 W/m2 OVC
20:28 59.0 °F /  15 °C 58.4 °F /  14.7 °C 29.76in /  1007.7hPa SW 3.5mph /  5.6km/h   98% 0.02in /  0.51mm 245.1 W/m2 OVC
20:33 59.0 °F /  15 °C 57.9 °F /  14.4 °C 29.76in /  1007.7hPa SSW 1.2mph /  1.9km/h 1.2mph /  1.9km/h 96% 0.02in /  0.51mm 235.0 W/m2 OVC
20:38 58.8 °F /  14.9 °C 57.7 °F /  14.3 °C 29.76in /  1007.7hPa SW 3.5mph /  5.6km/h 3.5mph /  5.6km/h 96% 0.02in /  0.51mm 214.8 W/m2 OVC
20:43 58.5 °F /  14.7 °C 57.9 °F /  14.4 °C 29.76in /  1007.7hPa WSW 3.5mph /  5.6km/h 3.5mph /  5.6km/h 98% 0.00in /  0mm 194.6 W/m2 OVC
20:48 57.9 °F /  14.4 °C 57.4 °F /  14.1 °C 29.77in /  1008hPa West 3.5mph /  5.6km/h 3.5mph /  5.6km/h 98% 0.00in /  0mm 174.4 W/m2 OVC
20:53 57.7 °F /  14.3 °C 57.2 °F /  14 °C 29.77in /  1008hPa West 4.6mph /  7.4km/h 4.6mph /  7.4km/h 98% 0.00in /  0mm 163.3 W/m2 OVC
20:58 57.7 °F /  14.3 °C 57.2 °F /  14 °C 29.77in /  1008hPa WSW 4.6mph /  7.4km/h 4.6mph /  7.4km/h 98% 0.00in /  0mm 151.2 W/m2 OVC
21:03 57.7 °F /  14.3 °C 57.2 °F /  14 °C 29.77in /  1008hPa West 3.5mph /  5.6km/h 3.5mph /  5.6km/h 98% 0.00in /  0mm 83.5 W/m2 OVC
21:08 57.6 °F /  14.2 °C 57.0 °F /  13.9 °C 29.77in /  1008hPa West 3.5mph /  5.6km/h 3.5mph /  5.6km/h 98% 0.00in /  0mm 0.0 W/m2 OVC
21:13 57.6 °F /  14.2 °C 57.0 °F /  13.9 °C 29.77in /  1008hPa West 2.3mph /  3.7km/h 2.3mph /  3.7km/h 98% 0.00in /  0mm 0.0 W/m2 OVC
21:15 57.4 °F /  14.1 °C 56.8 °F /  13.8 °C 29.77in /  1008hPa West 3.5mph /  5.6km/h 3.5mph /  5.6km/h 98% 0.00in /  0mm 0.0 W/m2 OVC
21:20 57.4 °F /  14.1 °C 56.8 °F /  13.8 °C 29.78in /  1008.4hPa WNW 3.5mph /  5.6km/h 3.5mph /  5.6km/h 98% 0.00in /  0mm 0.0 W/m2 OVC
21:25 57.4 °F /  14.1 °C 56.8 °F /  13.8 °C 29.77in /  1008hPa WNW 3.5mph /  5.6km/h 3.5mph /  5.6km/h 98% 0.00in /  0mm 0.0 W/m2 OVC
21:30 57.4 °F /  14.1 °C 56.8 °F /  13.8 °C 29.78in /  1008.4hPa WSW 2.3mph /  3.7km/h 2.3mph /  3.7km/h 98% 0.00in /  0mm 0.0 W/m2 OVC
21:35 57.2 °F /  14 °C 56.6 °F /  13.7 °C 29.78in /  1008.4hPa SW 2.3mph /  3.7km/h 2.3mph /  3.7km/h 98% 0.00in /  0mm 0.0 W/m2 OVC
21:40 56.8 °F /  13.8 °C 56.3 °F /  13.5 °C 29.78in /  1008.4hPa WSW 3.5mph /  5.6km/h 3.5mph /  5.6km/h 98% 0.00in /  0mm 0.0 W/m2 OVC
21:45 56.8 °F /  13.8 °C 56.3 °F /  13.5 °C 29.78in /  1008.4hPa WSW 3.5mph /  5.6km/h 3.5mph /  5.6km/h 98% 0.00in /  0mm 0.0 W/m2 OVC
21:50 56.8 °F /  13.8 °C 56.3 °F /  13.5 °C 29.79in /  1008.7hPa SW 2.3mph /  3.7km/h 2.3mph /  3.7km/h 98% 0.00in /  0mm 0.0 W/m2 OVC
21:55 56.7 °F /  13.7 °C 56.1 °F /  13.4 °C 29.79in /  1008.7hPa WSW 3.5mph /  5.6km/h 3.5mph /  5.6km/h 98% 0.00in /  0mm 0.0 W/m2 OVC
22:00 56.7 °F /  13.7 °C 56.1 °F /  13.4 °C 29.79in /  1008.7hPa WSW 3.5mph /  5.6km/h 3.5mph /  5.6km/h 98% 0.00in /  0mm 0.0 W/m2 OVC
22:05 56.7 °F /  13.7 °C 56.1 °F /  13.4 °C 29.79in /  1008.7hPa WSW 3.5mph /  5.6km/h 3.5mph /  5.6km/h 98% 0.00in /  0mm 0.0 W/m2 BKN
22:10 56.5 °F /  13.6 °C 55.9 °F /  13.3 °C 29.79in /  1008.7hPa WSW 2.3mph /  3.7km/h 2.3mph /  3.7km/h 98% 0.00in /  0mm 0.0 W/m2 BKN
22:15 55.9 °F /  13.3 °C 55.4 °F /  13 °C 29.79in /  1008.7hPa West 3.5mph /  5.6km/h 3.5mph /  5.6km/h 98% 0.00in /  0mm 0.0 W/m2 BKN
22:20 55.8 °F /  13.2 °C 55.2 °F /  12.9 °C 29.79in /  1008.7hPa West 3.5mph /  5.6km/h 3.5mph /  5.6km/h 98% 0.00in /  0mm 0.0 W/m2 BKN
22:25 55.6 °F /  13.1 °C 55.0 °F /  12.8 °C 29.79in /  1008.7hPa West 3.5mph /  5.6km/h 3.5mph /  5.6km/h 98% 0.00in /  0mm 0.0 W/m2 BKN
22:30 55.2 °F /  12.9 °C 54.7 °F /  12.6 °C 29.79in /  1008.7hPa West 3.5mph /  5.6km/h 3.5mph /  5.6km/h 98% 0.00in /  0mm 0.0 W/m2 BKN
22:35 55.2 °F /  12.9 °C 54.7 °F /  12.6 °C 29.79in /  1008.7hPa West 3.5mph /  5.6km/h 3.5mph /  5.6km/h 98% 0.00in /  0mm 0.0 W/m2 BKN
22:40 55.0 °F /  12.8 °C 54.5 °F /  12.5 °C 29.79in /  1008.7hPa WSW 3.5mph /  5.6km/h 3.5mph /  5.6km/h 98% 0.00in /  0mm 0.0 W/m2 BKN
22:45 55.0 °F /  12.8 °C 54.5 °F /  12.5 °C 29.81in /  1009.4hPa WSW 3.5mph /  5.6km/h 3.5mph /  5.6km/h 98% 0.00in /  0mm 0.0 W/m2 BKN
22:50 55.0 °F /  12.8 °C 54.5 °F /  12.5 °C 29.79in /  1008.7hPa WSW 3.5mph /  5.6km/h 3.5mph /  5.6km/h 98% 0.00in /  0mm 0.0 W/m2 BKN
22:55 54.9 °F /  12.7 °C 54.3 °F /  12.4 °C 29.81in /  1009.4hPa WSW 2.3mph /  3.7km/h 2.3mph /  3.7km/h 98% 0.00in /  0mm 0.0 W/m2 BKN
23:00 54.9 °F /  12.7 °C 54.3 °F /  12.4 °C 29.79in /  1008.7hPa SW 2.3mph /  3.7km/h 2.3mph /  3.7km/h 98% 0.00in /  0mm 0.0 W/m2 BKN
23:05 54.9 °F /  12.7 °C 54.3 °F /  12.4 °C 29.81in /  1009.4hPa SW 2.3mph /  3.7km/h 2.3mph /  3.7km/h 98% 0.00in /  0mm 0.0 W/m2 BKN
23:10 54.9 °F /  12.7 °C 54.3 °F /  12.4 °C 29.79in /  1008.7hPa WSW 3.5mph /  5.6km/h 3.5mph /  5.6km/h 98% 0.00in /  0mm 0.0 W/m2 BKN
23:15 54.9 °F /  12.7 °C 54.3 °F /  12.4 °C 29.79in /  1008.7hPa West 3.5mph /  5.6km/h 3.5mph /  5.6km/h 98% 0.00in /  0mm 0.0 W/m2 BKN
23:20 54.9 °F /  12.7 °C 54.3 °F /  12.4 °C 29.81in /  1009.4hPa West 3.5mph /  5.6km/h 3.5mph /  5.6km/h 98% 0.00in /  0mm 0.0 W/m2 BKN
23:25 54.9 °F /  12.7 °C 54.3 °F /  12.4 °C 29.79in /  1008.7hPa WSW 3.5mph /  5.6km/h 3.5mph /  5.6km/h 98% 0.00in /  0mm 0.0 W/m2 BKN
23:30 54.7 °F /  12.6 °C 54.1 °F /  12.3 °C 29.79in /  1008.7hPa West 3.5mph /  5.6km/h 3.5mph /  5.6km/h 98% 0.00in /  0mm 0.0 W/m2 BKN
23:35 54.7 °F /  12.6 °C 54.1 °F /  12.3 °C 29.81in /  1009.4hPa WSW 2.3mph /  3.7km/h 2.3mph /  3.7km/h 98% 0.00in /  0mm 0.0 W/m2 BKN
23:40 54.3 °F /  12.4 °C 53.8 °F /  12.1 °C 29.79in /  1008.7hPa WSW 3.5mph /  5.6km/h 3.5mph /  5.6km/h 98% 0.00in /  0mm 0.0 W/m2 BKN
23:45 54.3 °F /  12.4 °C 53.8 °F /  12.1 °C 29.79in /  1008.7hPa WSW 3.5mph /  5.6km/h 3.5mph /  5.6km/h 98% 0.00in /  0mm 0.0 W/m2 BKN
23:50 54.0 °F /  12.2 °C 53.4 °F /  11.9 °C 29.81in /  1009.4hPa WSW 3.5mph /  5.6km/h 3.5mph /  5.6km/h 98% 0.00in /  0mm 0.0 W/m2 BKN
23:55 54.0 °F /  12.2 °C 53.4 °F /  11.9 °C 29.81in /  1009.4hPa WSW 3.5mph /  5.6km/h 3.5mph /  5.6km/h 98% 0.00in /  0mm 0.0 W/m2 BKN
Juneau County Weather
Compliments of Weather Underground - 5.75 mb